Time;durP1;ratioP1;P1;durP2;ratioP2;P2;SDS_P1;SDS_P2;PMS_P1;PMS_P2;Temp;Humidity;BMP_temperature;BMP_pressure;BME280_temperature;BME280_humidity;BME280_pressure;Samples;Min_cycle;Max_cycle;Signal;HPM_P1;HPM_P2
2021/12/18 00:01:10;;;;;;;18.85;11.25;;;;;;;9.26;74.05;102167.16;5060789;28;20470;-65
2021/12/18 00:03:35;;;;;;;25.73;12.45;;;;;;;9.26;73.75;102161.72;5060407;28;20492;-65
2021/12/18 00:06:01;;;;;;;23.30;10.23;;;;;;;9.60;73.30;102160.09;5061417;28;21038;-64
2021/12/18 00:08:27;;;;;;;18.27;9.98;;;;;;;9.74;72.47;102162.91;5060224;28;20029;-65
2021/12/18 00:10:55;;;;;;;19.40;8.82;;;;;;;9.54;72.81;102160.91;5060452;28;20041;-64
2021/12/18 00:13:20;;;;;;;18.92;8.65;;;;;;;9.79;72.41;102166.72;5059835;28;20028;-65
2021/12/18 00:15:46;;;;;;;21.40;10.73;;;;;;;9.61;72.92;102167.22;5060043;28;20029;-65
2021/12/18 00:18:11;;;;;;;18.58;8.55;;;;;;;9.86;72.12;102166.75;5061660;28;20281;-65
2021/12/18 00:20:38;;;;;;;23.33;11.10;;;;;;;9.76;72.49;102166.28;5059478;28;20495;-65
2021/12/18 00:23:04;;;;;;;19.58;8.18;;;;;;;9.77;72.33;102160.63;5060914;28;20043;-65
2021/12/18 00:25:30;;;;;;;23.13;10.10;;;;;;;9.42;73.38;102158.72;5060024;28;20473;-63
2021/12/18 00:27:55;;;;;;;22.80;11.30;;;;;;;9.44;73.86;102158.50;5060247;28;20911;-64
2021/12/18 00:30:22;;;;;;;23.35;10.55;;;;;;;9.04;74.69;102159.03;5060474;28;20057;-65
2021/12/18 00:32:47;;;;;;;18.92;9.30;;;;;;;9.60;73.37;102146.47;5059890;28;20466;-64
2021/12/18 00:35:12;;;;;;;24.60;10.30;;;;;;;9.45;73.63;102147.44;5060594;28;20344;-65
2021/12/18 00:37:38;;;;;;;20.13;10.38;;;;;;;9.62;73.34;102151.75;5060209;28;20079;-63
2021/12/18 00:40:09;;;;;;;21.20;11.13;;;;;;;9.17;74.72;102153.69;5060240;28;20234;-64
2021/12/18 00:45:08;;;;;;;23.52;9.73;;;;;;;9.45;73.63;102150.16;5059887;28;20396;-64
2021/12/18 00:47:33;;;;;;;15.82;8.30;;;;;;;9.72;73.36;102154.09;5060031;28;20100;-64
2021/12/18 00:49:59;;;;;;;20.00;10.05;;;;;;;9.14;74.90;102170.44;5059730;28;20430;-64
2021/12/18 00:52:24;;;;;;;19.88;10.63;;;;;;;9.18;75.24;102163.56;5060714;28;20090;-64
2021/12/18 00:54:50;;;;;;;18.00;8.32;;;;;;;9.60;73.89;102165.53;5059151;28;20040;-65
2021/12/18 00:57:16;;;;;;;27.17;10.80;;;;;;;9.39;74.58;102161.84;5060318;28;20328;-65
2021/12/18 00:59:41;;;;;;;26.95;12.13;;;;;;;9.65;73.90;102160.34;5057912;28;20044;-65
2021/12/18 01:02:07;;;;;;;23.70;12.15;;;;;;;9.40;73.87;102162.66;5059510;28;20558;-64
2021/12/18 01:04:32;;;;;;;27.73;12.50;;;;;;;9.50;73.90;102163.16;5059997;28;20025;-65
2021/12/18 01:06:58;;;;;;;19.75;10.48;;;;;;;9.37;74.26;102169.38;5059493;28;20028;-65
2021/12/18 01:09:39;;;;;;;20.50;10.50;;;;;;;9.22;75.07;102166.72;5059403;28;20372;-65
2021/12/18 01:12:07;;;;;;;22.17;10.38;;;;;;;9.67;73.50;102171.88;5059548;28;20382;-64
2021/12/18 01:14:51;;;;;;;24.23;13.63;;;;;;;9.41;74.51;102181.56;5059180;28;20146;-64
2021/12/18 01:25:11;;;;;;;24.42;12.07;;;;;;;9.21;75.73;102179.50;5058551;28;21062;-65
2021/12/18 01:27:37;;;;;;;33.00;14.85;;;;;;;8.84;77.05;102181.47;5059998;28;20039;-64
2021/12/18 01:30:05;;;;;;;27.27;12.77;;;;;;;9.21;76.03;102187.66;5058197;28;20044;-64
2021/12/18 01:32:31;;;;;;;27.92;14.25;;;;;;;9.26;75.94;102180.78;5059576;28;20348;-65
2021/12/18 01:35:09;;;;;;;23.05;11.85;;;;;;;9.51;74.81;102180.34;5040539;28;20044;-64
2021/12/18 01:37:34;;;;;;;25.17;11.55;;;;;;;9.54;75.01;102177.25;5059137;28;20036;-65
2021/12/18 01:40:00;;;;;;;32.92;13.93;;;;;;;9.17;75.77;102170.03;5058916;28;20044;-64
2021/12/18 01:43:15;;;;;;;32.28;15.68;;;;;;;9.28;75.83;102171.38;5057732;28;20068;-65
2021/12/18 01:53:11;;;;;;;32.90;14.63;;;;;;;9.63;74.49;102172.47;5058641;28;19923;-64
2021/12/18 01:55:38;;;;;;;48.60;21.98;;;;;;;9.45;75.39;102173.81;5058197;28;20068;-64
2021/12/18 01:58:05;;;;;;;43.72;20.92;;;;;;;9.33;75.33;102168.09;5058263;28;20032;-63
2021/12/18 02:00:38;;;;;;;38.25;18.83;;;;;;;9.47;75.51;102169.03;5058508;28;20041;-65
2021/12/18 02:03:04;;;;;;;50.60;24.27;;;;;;;9.43;75.55;102162.28;5059003;28;20028;-62
2021/12/18 02:05:30;;;;;;;49.95;20.20;;;;;;;9.49;75.30;102161.50;5058399;28;20783;-64
2021/12/18 02:07:55;;;;;;;46.65;20.20;;;;;;;9.10;76.87;102163.69;5057813;28;20029;-66
2021/12/18 02:10:28;;;;;;;42.40;20.17;;;;;;;9.55;75.25;102154.41;5059541;28;20044;-65
2021/12/18 02:12:57;;;;;;;54.20;20.58;;;;;;;9.64;75.00;102145.03;5056774;28;20028;-66
2021/12/18 02:20:58;;;;;;;36.38;18.65;;;;;;;9.64;74.63;102136.88;5057591;28;20141;-63
2021/12/18 02:23:23;;;;;;;35.10;17.27;;;;;;;9.48;74.50;102132.56;5058719;28;20394;-65
2021/12/18 02:25:49;;;;;;;42.45;18.85;;;;;;;9.32;75.20;102123.69;5058239;28;20037;-63
2021/12/18 02:28:19;;;;;;;53.05;20.88;;;;;;;9.48;74.62;102123.59;5058140;28;20085;-65
2021/12/18 02:30:46;;;;;;;35.63;16.02;;;;;;;9.66;73.97;102117.63;5057912;28;20644;-64
2021/12/18 02:33:12;;;;;;;43.28;16.67;;;;;;;9.15;75.52;102123.16;5059005;28;20021;-63
2021/12/18 02:35:53;;;;;;;35.47;15.30;;;;;;;9.34;74.93;102126.19;5058483;28;20052;-63
2021/12/18 02:38:34;;;;;;;30.00;14.75;;;;;;;9.40;74.32;102125.41;5057436;28;20467;-63
2021/12/18 02:43:28;;;;;;;42.20;17.00;;;;;;;9.05;75.19;102112.56;5057080;28;20032;-65
2021/12/18 02:45:59;;;;;;;34.97;16.75;;;;;;;9.06;75.28;102119.72;5058608;28;20063;-64
2021/12/18 02:48:28;;;;;;;40.55;17.88;;;;;;;9.24;74.85;102121.09;5058390;28;20390;-64
2021/12/18 02:50:57;;;;;;;38.80;17.85;;;;;;;9.41;74.29;102107.19;5057827;28;20090;-65
2021/12/18 02:53:23;;;;;;;37.72;17.63;;;;;;;9.01;75.93;102113.19;5057936;28;20029;-64
2021/12/18 02:55:57;;;;;;;61.58;23.00;;;;;;;8.87;76.41;102121.22;5057511;28;20068;-65
2021/12/18 02:58:23;;;;;;;;;;;;;;;9.06;76.10;102125.16;5059366;28;20573;-64
2021/12/18 03:00:49;;;;;;;45.70;22.10;;;;;;;9.36;74.95;102121.41;5057564;28;19916;-65
2021/12/18 03:03:15;;;;;;;41.83;23.52;;;;;;;9.45;74.54;102128.38;5058445;28;20032;-65
2021/12/18 03:05:50;;;;;;;43.72;18.20;;;;;;;9.39;74.66;102112.84;5057960;28;20395;-65
2021/12/18 03:08:23;;;;;;;52.28;19.85;;;;;;;9.29;74.48;102125.97;5057531;28;20418;-65
2021/12/18 03:24:31;;;;;;;31.80;17.23;;;;;;;9.56;73.81;102117.94;5058466;28;20399;-65
2021/12/18 03:26:57;;;;;;;38.60;16.63;;;;;;;9.59;73.81;102117.56;5061628;28;20054;-65
2021/12/18 03:29:22;;;;;;;40.80;16.70;;;;;;;9.46;73.83;102119.16;5061587;28;20029;-65
2021/12/18 03:31:47;;;;;;;37.63;16.57;;;;;;;9.55;73.60;102116.28;5043668;28;20043;-64
2021/12/18 03:34:12;;;;;;;29.42;13.13;;;;;;;9.56;73.70;102118.81;5061556;28;20261;-65
2021/12/18 03:36:38;;;;;;;24.70;14.38;;;;;;;9.57;73.68;102119.66;5062486;28;20025;-65
2021/12/18 03:39:03;;;;;;;37.92;18.27;;;;;;;9.23;74.88;102108.53;5060740;28;20024;-65
2021/12/18 03:41:29;;;;;;;34.28;16.05;;;;;;;9.60;73.94;102102.88;5061719;28;20040;-64
2021/12/18 03:43:54;;;;;;;48.10;15.48;;;;;;;9.41;74.34;102102.59;5061183;28;20085;-64
2021/12/18 03:46:20;;;;;;;42.08;16.83;;;;;;;9.31;75.08;102104.81;5061666;28;20568;-65
2021/12/18 03:48:45;;;;;;;39.80;16.83;;;;;;;9.62;73.65;102103.53;5061731;28;20052;-64
2021/12/18 03:51:10;;;;;;;37.43;17.73;;;;;;;9.29;74.73;102102.31;5061115;28;20598;-64
2021/12/18 03:53:36;;;;;;;42.55;18.45;;;;;;;9.29;74.61;102106.91;5061572;28;20348;-64
2021/12/18 03:56:02;;;;;;;46.90;15.30;;;;;;;9.20;75.10;102104.31;5061037;28;20024;-64
2021/12/18 03:58:27;;;;;;;45.58;16.55;;;;;;;9.19;74.94;102105.34;5061373;28;20033;-64
2021/12/18 04:01:07;;;;;;;28.15;11.80;;;;;;;9.34;75.10;102099.81;5061030;28;20131;-64
2021/12/18 04:03:32;;;;;;;36.42;17.30;;;;;;;9.33;74.48;102100.88;5061636;28;20804;-64
2021/12/18 04:05:58;;;;;;;40.35;18.98;;;;;;;9.39;74.94;102112.00;5060988;28;20028;-64
2021/12/18 04:08:23;;;;;;;49.40;16.98;;;;;;;9.46;74.28;102113.72;5060727;28;20031;-64
2021/12/18 04:10:48;;;;;;;38.72;16.63;;;;;;;9.64;74.35;102108.81;5061128;28;20025;-65
2021/12/18 04:13:13;;;;;;;43.20;15.47;;;;;;;9.64;74.35;102104.19;5060228;28;20025;-64
2021/12/18 04:15:39;;;;;;;43.92;15.73;;;;;;;9.44;74.83;102110.34;5062247;28;20624;-64
2021/12/18 04:18:04;;;;;;;39.10;17.85;;;;;;;9.56;74.66;102117.94;5060337;28;20139;-65
2021/12/18 04:20:30;;;;;;;55.65;19.45;;;;;;;9.25;75.54;102119.22;5060936;28;20107;-65
2021/12/18 04:22:56;;;;;;;44.72;19.55;;;;;;;8.99;76.69;102116.94;5060657;28;20035;-64
2021/12/18 04:25:22;;;;;;;48.05;20.77;;;;;;;8.69;77.58;102117.06;5060652;28;20025;-64
2021/12/18 04:27:47;;;;;;;51.08;21.77;;;;;;;8.62;78.46;102118.91;5061084;28;20119;-65
2021/12/18 04:30:13;;;;;;;44.50;18.67;;;;;;;8.46;79.26;102120.78;5060976;28;20533;-65
2021/12/18 04:32:39;;;;;;;38.22;18.67;;;;;;;8.70;79.48;102121.50;5061417;28;20052;-64
2021/12/18 04:35:05;;;;;;;44.88;18.55;;;;;;;8.95;78.03;102121.06;5059768;28;20028;-65
2021/12/18 04:37:30;;;;;;;62.90;20.60;;;;;;;8.90;77.78;102130.88;5060908;28;20142;-64
2021/12/18 04:39:56;;;;;;;52.78;21.60;;;;;;;8.28;80.29;102111.19;5060572;28;20028;-64
2021/12/18 04:42:21;;;;;;;55.10;20.35;;;;;;;8.89;78.25;102123.75;5060375;28;20492;-64
2021/12/18 04:44:47;;;;;;;45.05;17.67;;;;;;;9.24;76.72;102115.66;5060800;28;20021;-64
2021/12/18 04:47:12;;;;;;;50.38;18.35;;;;;;;8.87;77.72;102115.78;5060098;28;20468;-64
2021/12/18 04:49:38;;;;;;;41.83;18.95;;;;;;;9.29;76.88;102112.34;5061048;28;20020;-66
2021/12/18 04:52:04;;;;;;;72.32;21.05;;;;;;;8.46;78.21;102115.34;5059400;28;20020;-65
2021/12/18 04:54:29;;;;;;;38.17;16.63;;;;;;;9.22;76.83;102118.59;5060542;28;20029;-64
2021/12/18 04:56:55;;;;;;;33.15;15.70;;;;;;;9.22;76.56;102113.13;5059692;28;20024;-65
2021/12/18 04:59:21;;;;;;;60.38;17.33;;;;;;;9.16;76.73;102113.94;5060428;28;20024;-64
2021/12/18 05:01:46;;;;;;;53.38;18.20;;;;;;;9.15;76.18;102112.25;5060222;28;20033;-64
2021/12/18 05:04:14;;;;;;;45.75;16.23;;;;;;;9.17;77.00;102114.78;5059795;28;20056;-65
2021/12/18 05:06:43;;;;;;;57.78;21.15;;;;;;;8.39;79.00;102117.16;5060152;28;20032;-64
2021/12/18 05:09:09;;;;;;;55.63;19.85;;;;;;;8.34;80.21;102108.75;5060455;28;20056;-65
2021/12/18 05:11:34;;;;;;;56.92;22.33;;;;;;;8.78;79.04;102103.34;5042578;28;20903;-66
2021/12/18 05:14:00;;;;;;;64.28;21.77;;;;;;;8.52;79.80;102106.41;5041099;28;20073;-64
2021/12/18 05:16:25;;;;;;;51.88;18.50;;;;;;;8.91;78.41;102105.38;5059812;28;20021;-64
2021/12/18 05:18:50;;;;;;;44.00;15.43;;;;;;;9.40;76.26;102103.63;5059683;28;20029;-64
2021/12/18 05:21:16;;;;;;;47.08;16.23;;;;;;;9.31;76.69;102111.13;5059530;28;20039;-64
2021/12/18 05:23:41;;;;;;;54.63;19.98;;;;;;;9.26;76.68;102104.56;5060005;28;20060;-62
2021/12/18 05:26:06;;;;;;;51.08;18.15;;;;;;;9.06;77.90;102108.84;5059592;28;20543;-63
2021/12/18 05:28:31;;;;;;;55.25;20.48;;;;;;;9.22;76.76;102107.69;5059593;28;20039;-64
2021/12/18 05:30:57;;;;;;;49.78;16.40;;;;;;;9.06;78.07;102118.88;5058786;28;20112;-64
2021/12/18 05:33:22;;;;;;;51.40;19.90;;;;;;;8.94;77.71;102115.84;5059678;28;20029;-63
2021/12/18 05:35:47;;;;;;;47.95;17.08;;;;;;;9.16;77.43;102116.66;5059034;28;20399;-64
2021/12/18 05:38:12;;;;;;;52.33;21.92;;;;;;;8.91;77.97;102114.34;5059857;28;20056;-65
2021/12/18 05:40:38;;;;;;;43.57;16.37;;;;;;;9.39;76.49;102131.06;5059782;28;20043;-64
2021/12/18 05:43:05;;;;;;;56.35;17.48;;;;;;;8.94;77.41;102116.69;5058600;28;20379;-65
2021/12/18 05:45:31;;;;;;;46.85;17.15;;;;;;;9.08;77.17;102127.69;5060054;28;20035;-65
2021/12/18 05:47:56;;;;;;;51.40;16.83;;;;;;;9.04;77.36;102120.94;5058346;28;20507;-64
2021/12/18 05:50:24;;;;;;;44.30;16.70;;;;;;;9.37;76.45;102127.69;5059711;28;20028;-65
2021/12/18 05:52:50;;;;;;;39.55;15.25;;;;;;;9.39;76.22;102126.47;5059443;28;20498;-64
2021/12/18 05:55:15;;;;;;;29.55;15.80;;;;;;;9.29;76.57;102123.25;5059473;28;20034;-64
2021/12/18 05:57:42;;;;;;;50.70;19.30;;;;;;;8.24;80.50;102123.47;5058563;28;20041;-65
2021/12/18 06:00:09;;;;;;;56.33;17.83;;;;;;;8.68;79.18;102130.88;5058623;28;20141;-66
2021/12/18 06:02:34;;;;;;;38.78;15.32;;;;;;;8.82;78.78;102129.13;5058771;28;20053;-66
2021/12/18 06:04:59;;;;;;;59.00;16.63;;;;;;;8.82;78.20;102124.53;5058606;28;20024;-64
2021/12/18 06:07:30;;;;;;;59.33;18.33;;;;;;;8.66;79.09;102127.50;5059434;28;20486;-65
2021/12/18 06:09:56;;;;;;;32.22;14.05;;;;;;;8.98;78.72;102128.00;5040312;28;20036;-64
2021/12/18 06:12:22;;;;;;;46.55;20.42;;;;;;;8.91;77.75;102125.22;5059204;28;20020;-65
2021/12/18 06:14:48;;;;;;;33.40;14.60;;;;;;;9.34;76.77;102118.88;5058490;28;20024;-64
2021/12/18 06:17:13;;;;;;;33.17;13.60;;;;;;;9.13;77.10;102121.66;5059030;28;20454;-65
2021/12/18 06:19:38;;;;;;;26.00;13.00;;;;;;;8.94;77.69;102122.13;5058432;28;20032;-65
2021/12/18 06:22:04;;;;;;;37.25;16.52;;;;;;;9.15;76.98;102122.28;5059686;28;20028;-65
2021/12/18 06:24:29;;;;;;;33.28;15.20;;;;;;;9.33;76.83;102117.22;5059575;28;20024;-65
2021/12/18 06:26:56;;;;;;;35.28;15.18;;;;;;;9.32;76.51;102122.81;5058471;28;20510;-65
2021/12/18 06:29:22;;;;;;;56.03;19.00;;;;;;;9.20;76.76;102125.25;5059613;28;20052;-65
2021/12/18 06:31:48;;;;;;;61.83;22.20;;;;;;;9.15;77.16;102122.28;5058129;28;20179;-65
2021/12/18 06:34:14;;;;;;;66.03;23.17;;;;;;;8.82;78.83;102123.69;5058963;28;20476;-64
2021/12/18 06:36:39;;;;;;;56.88;18.70;;;;;;;8.97;78.29;102121.72;5059497;28;20028;-64
2021/12/18 06:39:05;;;;;;;54.42;20.45;;;;;;;8.72;78.98;102124.88;5058245;28;20033;-64
2021/12/18 06:41:30;;;;;;;46.63;17.80;;;;;;;9.16;78.22;102126.69;5059198;28;20105;-64
2021/12/18 06:43:56;;;;;;;61.85;24.55;;;;;;;8.55;79.74;102118.78;5058229;28;20036;-64
2021/12/18 06:49:25;;;;;;;62.78;23.90;;;;;;;8.76;79.35;102125.31;5046602;28;20435;-65
2021/12/18 06:51:50;;;;;;;62.05;23.17;;;;;;;8.70;79.61;102132.38;5058308;28;20662;-64
2021/12/18 06:54:15;;;;;;;58.47;22.58;;;;;;;8.93;79.60;102125.88;5058617;28;20092;-64
2021/12/18 06:56:41;;;;;;;76.20;23.55;;;;;;;9.06;78.21;102127.03;5058341;28;20032;-65
2021/12/18 06:59:06;;;;;;;52.40;22.45;;;;;;;8.89;79.52;102124.56;5061006;28;20531;-65
2021/12/18 07:01:31;;;;;;;53.40;20.58;;;;;;;8.73;79.57;102126.53;5062743;28;20036;-64
2021/12/18 07:03:57;;;;;;;64.95;22.92;;;;;;;8.90;79.03;102119.97;5063241;28;20500;-64
2021/12/18 07:06:22;;;;;;;49.42;19.33;;;;;;;8.89;79.06;102124.56;5062466;28;20476;-65
2021/12/18 07:08:47;;;;;;;61.85;20.17;;;;;;;8.85;78.83;102118.69;5063226;28;20032;-64
2021/12/18 07:11:13;;;;;;;50.45;18.25;;;;;;;9.00;78.49;102109.63;5063042;28;20656;-64
2021/12/18 07:13:39;;;;;;;41.40;19.63;;;;;;;8.74;79.13;102111.91;5062945;28;20033;-65
2021/12/18 07:16:04;;;;;;;40.60;18.30;;;;;;;8.81;79.18;102111.09;5063310;28;20032;-64
2021/12/18 07:18:30;;;;;;;41.95;17.50;;;;;;;8.79;78.65;102114.03;5061965;28;20036;-63
2021/12/18 07:20:56;;;;;;;41.28;17.25;;;;;;;8.62;78.95;102110.75;5063123;28;20046;-64
2021/12/18 07:23:21;;;;;;;35.75;17.63;;;;;;;8.89;78.49;102108.25;5062737;28;20028;-64
2021/12/18 07:25:47;;;;;;;40.90;16.98;;;;;;;8.82;78.79;102118.25;5062569;28;20482;-64
2021/12/18 07:28:13;;;;;;;51.65;19.92;;;;;;;8.70;79.09;102118.78;5062222;28;20060;-64
2021/12/18 07:30:38;;;;;;;40.92;17.20;;;;;;;9.14;77.73;102116.00;5061766;28;20043;-64
2021/12/18 07:33:10;;;;;;;41.30;18.63;;;;;;;8.79;78.58;102124.91;5061516;28;20083;-65
2021/12/18 07:35:35;;;;;;;37.88;16.50;;;;;;;8.66;79.11;102122.06;5061730;28;20035;-63
2021/12/18 07:38:00;;;;;;;47.75;19.55;;;;;;;9.12;78.25;102134.41;5062548;28;20021;-65
2021/12/18 07:40:26;;;;;;;65.47;17.90;;;;;;;8.97;78.37;102132.59;5061537;28;20041;-64
2021/12/18 07:42:51;;;;;;;35.90;15.65;;;;;;;9.02;78.19;102140.19;5061873;28;20823;-64
2021/12/18 07:45:17;;;;;;;38.13;13.98;;;;;;;9.33;77.32;102136.25;5061334;28;20028;-65
2021/12/18 07:50:27;;;;;;;38.50;15.05;;;;;;;9.40;76.58;102130.84;5061230;28;20059;-64
2021/12/18 07:52:52;;;;;;;39.47;15.93;;;;;;;9.34;76.73;102128.91;5061039;28;20040;-64
2021/12/18 07:55:18;;;;;;;41.35;16.45;;;;;;;9.09;77.38;102134.81;5061715;28;20039;-64
2021/12/18 07:57:44;;;;;;;41.33;16.70;;;;;;;8.97;78.07;102134.50;5060713;28;20702;-64
2021/12/18 08:00:12;;;;;;;39.45;19.10;;;;;;;8.87;78.65;102132.09;5061441;28;20032;-64
2021/12/18 08:02:38;;;;;;;34.90;17.00;;;;;;;9.26;77.91;102126.34;5060900;28;20376;-65
2021/12/18 08:05:04;;;;;;;43.97;19.13;;;;;;;9.08;78.33;102122.22;5061404;28;20025;-64
2021/12/18 08:07:29;;;;;;;47.42;17.65;;;;;;;8.89;79.28;102127.31;5060277;28;20037;-65
2021/12/18 08:09:54;;;;;;;51.05;19.02;;;;;;;9.02;78.44;102115.69;5060237;28;20399;-64
2021/12/18 08:12:20;;;;;;;43.37;16.80;;;;;;;9.13;78.17;102119.78;5061885;28;20891;-65
2021/12/18 08:14:45;;;;;;;49.53;18.10;;;;;;;9.11;77.89;102119.94;5060387;28;20269;-64
2021/12/18 08:17:11;;;;;;;50.85;21.58;;;;;;;8.91;79.14;102125.22;5062199;28;20082;-64
2021/12/18 08:19:36;;;;;;;39.33;19.60;;;;;;;8.93;78.82;102123.16;5060933;28;20032;-64
2021/12/18 08:22:04;;;;;;;32.53;14.85;;;;;;;9.23;78.20;102122.97;5061951;28;20028;-64
2021/12/18 08:24:30;;;;;;;47.42;20.70;;;;;;;8.77;79.10;102129.69;5061061;28;20457;-63
2021/12/18 08:26:55;;;;;;;43.58;17.67;;;;;;;9.10;78.37;102131.03;5061234;28;20106;-65
2021/12/18 08:29:21;;;;;;;47.63;20.20;;;;;;;9.26;77.92;102118.16;5060472;28;20604;-64
2021/12/18 08:31:47;;;;;;;37.45;15.10;;;;;;;9.50;77.25;102113.34;5059778;28;20044;-66
2021/12/18 08:34:12;;;;;;;34.65;14.88;;;;;;;9.19;78.50;102124.41;5060928;28;20430;-64
2021/12/18 08:36:38;;;;;;;33.75;13.88;;;;;;;9.67;76.43;102114.69;5059862;28;20055;-64
2021/12/18 08:39:04;;;;;;;34.78;14.52;;;;;;;9.52;76.70;102113.97;5061392;28;20258;-65
2021/12/18 08:41:29;;;;;;;40.10;13.60;;;;;;;9.69;76.57;102118.06;5060294;28;20082;-64
2021/12/18 08:43:55;;;;;;;34.13;15.45;;;;;;;9.59;76.30;102125.75;5060056;28;20028;-65
2021/12/18 08:46:20;;;;;;;31.95;13.07;;;;;;;9.37;77.43;102125.81;5060563;28;20020;-66
2021/12/18 08:48:45;;;;;;;32.47;14.93;;;;;;;9.45;76.79;102122.94;5059272;28;20029;-66
2021/12/18 08:51:11;;;;;;;34.63;16.17;;;;;;;9.28;77.37;102116.94;5060267;28;20028;-66
2021/12/18 08:53:36;;;;;;;29.42;14.48;;;;;;;9.54;77.49;102125.50;5059566;28;20465;-66
2021/12/18 08:56:02;;;;;;;42.63;14.27;;;;;;;9.67;76.36;102122.84;5060475;28;20032;-66
2021/12/18 08:58:27;;;;;;;48.92;16.83;;;;;;;9.52;76.97;102128.41;5059488;28;20070;-65
2021/12/18 09:00:53;;;;;;;31.83;12.00;;;;;;;9.76;76.77;102122.69;5060304;28;20841;-66
2021/12/18 09:03:18;;;;;;;27.45;10.73;;;;;;;9.41;77.46;102134.41;5059724;28;20027;-65
2021/12/18 09:05:44;;;;;;;30.95;12.68;;;;;;;9.50;77.21;102129.66;5059458;28;20120;-64
2021/12/18 09:08:09;;;;;;;26.83;11.27;;;;;;;9.72;76.38;102126.88;5060136;28;20046;-64
2021/12/18 09:10:35;;;;;;;25.35;12.18;;;;;;;9.73;76.01;102128.53;5060176;28;20029;-64
2021/12/18 09:13:00;;;;;;;23.95;10.00;;;;;;;9.55;76.83;102138.06;5059614;28;20102;-64
2021/12/18 09:15:25;;;;;;;23.20;10.90;;;;;;;9.49;77.32;102126.09;5059481;28;20032;-64
2021/12/18 09:17:51;;;;;;;24.98;9.65;;;;;;;9.43;77.57;102127.75;5060435;28;20040;-64
2021/12/18 09:20:16;;;;;;;23.42;9.23;;;;;;;9.41;77.75;102124.38;5059615;28;20059;-64
2021/12/18 09:22:42;;;;;;;38.53;11.43;;;;;;;9.60;76.55;102124.69;5058232;28;20711;-64
2021/12/18 09:25:08;;;;;;;26.98;12.68;;;;;;;9.67;76.70;102117.41;5060466;28;20081;-64
2021/12/18 09:27:46;;;;;;;27.77;9.95;;;;;;;9.79;76.16;102122.28;5058535;28;20699;-64
2021/12/18 09:30:14;;;;;;;23.85;10.07;;;;;;;9.85;75.75;102126.94;5059171;28;20115;-64
2021/12/18 09:32:40;;;;;;;26.55;12.13;;;;;;;9.82;76.06;102127.34;5058526;28;20060;-65
2021/12/18 09:35:07;;;;;;;29.35;10.90;;;;;;;9.81;76.41;102125.66;5059558;28;20025;-64
2021/12/18 09:37:33;;;;;;;23.33;9.88;;;;;;;9.72;76.60;102127.72;5059284;28;20035;-64
2021/12/18 09:39:58;;;;;;;29.90;12.05;;;;;;;9.84;76.33;102125.25;5059202;28;20032;-64
2021/12/18 09:42:24;;;;;;;21.40;8.98;;;;;;;10.03;75.28;102128.25;5058438;28;20034;-65
2021/12/18 09:44:50;;;;;;;19.58;8.75;;;;;;;10.09;75.45;102119.28;5059155;28;20587;-64
2021/12/18 09:47:17;;;;;;;15.45;7.97;;;;;;;9.99;74.70;102121.53;5059657;28;20941;-65
2021/12/18 09:49:44;;;;;;;17.73;8.07;;;;;;;9.87;75.16;102121.28;5058940;28;20024;-66
2021/12/18 09:52:09;;;;;;;17.15;7.25;;;;;;;10.21;74.58;102113.25;5059324;28;20460;-64
2021/12/18 09:54:35;;;;;;;13.43;6.93;;;;;;;10.12;74.61;102112.56;5059156;28;20063;-64
2021/12/18 09:57:00;;;;;;;14.30;8.27;;;;;;;10.20;73.93;102111.56;5059460;28;20490;-64
2021/12/18 09:59:25;;;;;;;14.32;8.02;;;;;;;10.06;74.46;102108.78;5058640;28;20036;-65
2021/12/18 10:01:50;;;;;;;20.53;7.20;;;;;;;10.25;74.41;102118.06;5059330;28;20116;-64
2021/12/18 10:04:30;;;;;;;16.63;7.13;;;;;;;10.27;74.07;102115.16;5059011;28;20606;-63
2021/12/18 10:06:58;;;;;;;17.30;6.97;;;;;;;10.08;74.31;102114.88;5058423;28;20074;-64
2021/12/18 10:09:23;;;;;;;22.45;9.30;;;;;;;10.09;74.86;102111.09;5059554;28;20129;-65
2021/12/18 10:11:54;;;;;;;20.17;7.87;;;;;;;9.95;75.35;102112.06;5059591;28;20500;-63
2021/12/18 10:14:41;;;;;;;19.85;7.22;;;;;;;9.93;75.12;102101.38;5058930;28;21486;-65
2021/12/18 10:17:25;;;;;;;20.13;7.80;;;;;;;10.35;74.29;102114.94;5059269;28;20048;-65
2021/12/18 10:19:53;;;;;;;18.23;9.80;;;;;;;10.18;74.35;102103.59;5058117;28;20047;-65
2021/12/18 10:22:19;;;;;;;14.90;6.93;;;;;;;10.30;74.51;102100.25;5059563;28;20111;-64
2021/12/18 10:24:58;;;;;;;19.92;6.30;;;;;;;10.34;74.39;102091.47;5059750;28;20120;-63
2021/12/18 10:27:26;;;;;;;15.52;8.98;;;;;;;10.24;74.53;102097.31;5058812;28;20055;-65
2021/12/18 10:30:06;;;;;;;19.88;10.00;;;;;;;10.22;74.65;102087.66;5058588;28;20024;-64
2021/12/18 10:32:31;;;;;;;23.85;8.55;;;;;;;10.16;75.38;102084.72;5058294;28;20395;-64
2021/12/18 10:34:58;;;;;;;23.13;10.45;;;;;;;10.18;74.77;102080.94;5063580;28;20028;-65
2021/12/18 10:37:27;;;;;;;20.80;9.27;;;;;;;9.61;77.73;102077.34;5061220;28;20509;-64
2021/12/18 10:40:08;;;;;;;25.58;10.63;;;;;;;9.57;77.38;102081.53;5062852;28;20032;-66
2021/12/18 10:42:40;;;;;;;17.52;7.00;;;;;;;10.07;75.76;102076.94;5062491;28;20016;-65
2021/12/18 10:45:20;;;;;;;17.70;7.55;;;;;;;10.33;74.55;102075.31;5062387;28;20032;-63
2021/12/18 10:47:55;;;;;;;18.52;8.38;;;;;;;10.28;74.84;102073.19;5075263;28;20032;-64
2021/12/18 10:50:40;;;;;;;16.27;7.50;;;;;;;10.36;74.59;102078.47;5062192;28;20115;-65
2021/12/18 10:53:23;;;;;;;19.23;7.90;;;;;;;10.05;75.31;102082.56;5062835;28;20476;-63
2021/12/18 10:55:53;;;;;;;13.98;7.20;;;;;;;10.19;75.24;102075.25;5063208;28;20031;-65
2021/12/18 10:58:33;;;;;;;14.60;5.88;;;;;;;10.02;75.58;102077.53;5061350;28;20036;-63
2021/12/18 11:01:03;;;;;;;21.77;8.88;;;;;;;10.13;75.20;102073.34;5063071;28;20040;-63
2021/12/18 11:03:38;;;;;;;16.23;7.60;;;;;;;10.12;75.19;102077.16;5062330;28;20025;-63
2021/12/18 11:06:12;;;;;;;17.67;6.85;;;;;;;10.13;75.32;102074.19;5062728;28;20024;-64
2021/12/18 11:08:56;;;;;;;19.65;8.27;;;;;;;10.31;75.02;102074.69;5062449;28;20025;-65
2021/12/18 11:14:12;;;;;;;16.27;6.53;;;;;;;10.36;74.93;102061.25;5062583;28;20119;-65
2021/12/18 11:16:39;;;;;;;15.55;7.10;;;;;;;10.07;75.53;102064.13;5062275;28;20031;-63
2021/12/18 11:19:13;;;;;;;15.18;7.30;;;;;;;10.42;74.27;102059.59;5062212;28;20427;-65
2021/12/18 11:21:43;;;;;;;;;;;;;;;10.22;74.92;102058.50;5062817;28;20036;-65
2021/12/18 11:24:12;;;;;;;16.60;7.50;;;;;;;10.21;75.03;102053.28;5061236;28;19921;-63
2021/12/18 11:26:46;;;;;;;21.48;9.27;;;;;;;10.22;75.09;102052.22;5062540;28;20163;-65
2021/12/18 11:29:18;;;;;;;21.30;8.50;;;;;;;10.35;74.36;102046.78;5061871;28;20035;-65
2021/12/18 11:31:45;;;;;;;20.08;8.10;;;;;;;10.02;75.66;102044.84;5061322;28;20056;-66
2021/12/18 11:34:11;;;;;;;19.02;6.65;;;;;;;9.94;76.35;102051.31;5062219;28;20795;-64
2021/12/18 11:36:42;;;;;;;25.00;11.23;;;;;;;9.78;76.29;102045.16;5061652;28;20116;-64
2021/12/18 11:39:08;;;;;;;20.30;10.20;;;;;;;10.15;75.81;102044.00;5062059;28;20032;-64
2021/12/18 11:41:34;;;;;;;29.05;11.43;;;;;;;9.81;76.22;102038.47;5061147;28;20426;-63
2021/12/18 11:44:15;;;;;;;29.65;11.10;;;;;;;10.11;76.18;102038.13;5061573;28;20029;-64
2021/12/18 11:46:41;;;;;;;23.42;9.52;;;;;;;10.30;75.39;102038.41;5063014;28;20484;-64
2021/12/18 11:49:09;;;;;;;16.83;8.65;;;;;;;10.29;75.06;102036.72;5061472;28;20488;-65
2021/12/18 11:51:36;;;;;;;27.55;9.90;;;;;;;10.46;74.84;102028.13;5061748;28;20040;-65
2021/12/18 11:54:03;;;;;;;16.13;7.53;;;;;;;10.01;75.99;102018.59;5060772;28;20138;-65
2021/12/18 11:56:49;;;;;;;19.38;7.50;;;;;;;10.25;75.42;102024.56;5061604;28;20103;-65
2021/12/18 11:59:34;;;;;;;17.35;7.88;;;;;;;10.37;74.88;102020.13;5060173;28;20115;-65
2021/12/18 12:01:59;;;;;;;25.23;10.27;;;;;;;9.77;76.24;102015.41;5061366;28;20107;-64
2021/12/18 12:04:25;;;;;;;17.52;6.07;;;;;;;10.26;75.02;102018.03;5061450;28;20035;-65
2021/12/18 12:06:50;;;;;;;14.93;6.43;;;;;;;9.90;76.17;102014.59;5060922;28;20579;-65
2021/12/18 12:09:33;;;;;;;14.75;7.35;;;;;;;10.12;75.74;102007.13;5062295;28;20035;-64